»·PEaware :: N7577G KEUG-KOTH

N7577G :: KEUG-KOTH

FLIGHT INFORMATION

Flight Status: Arrived
Operator: Privately registered:
United States
More flights under this callsign
Pilot: Chase G. (14174)
Aircraft: CESSNA 172 SKYHAWK
(C172)
More flights by this aircraft type
Origin: KEUG Mahlon Sweet
United States
Destination: KOTH North Bend Mun
United States
More flights between these airports :: More routes between these airports
Route: +EUG9 EUG V121 OTH
File this flight plan on PilotEdge
Remarks: Obstacle Dep
Altitude:
(Current/Filed)
7,000ft
Speed:
(Current/Filed)
110kts
Departed: 08-Dec-17 04:10 PM
Arrived: 08-Dec-17 04:53 PM
Distance/Time
Traveled:
62nm/0:42
Distance/Time
To Go:
Arrived

Flight Plot

Page will automatically refresh every two minutes.

Flight plan parsing failed; only flown route is shown


Map Options




Map Legend


Flown Route
Filed Route
Departure Airport
Arrival Airport
Navaid (VOR, NDB)
Fix

Horizontal Profiles

Position Reports

Time Latitude Longitude Heading Altitude Ground
Speed
08-Dec-17 15:54 44.111722 -123.214693 282 372ft 0kts
08-Dec-17 15:55 44.111722 -123.214693 282 372ft 0kts
08-Dec-17 15:56 44.111722 -123.214694 282 372ft 0kts
08-Dec-17 15:57 44.111723 -123.214699 282 372ft 0kts
08-Dec-17 15:58 44.111723 -123.214704 282 372ft 0kts
08-Dec-17 15:59 44.111724 -123.214709 282 372ft 0kts
08-Dec-17 16:00 44.111725 -123.214714 282 372ft 0kts
08-Dec-17 16:01 44.111726 -123.214719 282 372ft 0kts
08-Dec-17 16:02 44.111727 -123.214724 282 372ft 0kts
08-Dec-17 16:03 44.111727 -123.214728 282 372ft 0kts
08-Dec-17 16:04 44.111728 -123.214732 282 372ft 0kts
08-Dec-17 16:05 44.111729 -123.214736 282 372ft 0kts
08-Dec-17 16:06 44.111729 -123.214741 282 372ft 0kts
08-Dec-17 16:07 44.111697 -123.215911 268 372ft 9kts
08-Dec-17 16:08 44.115027 -123.217073 359 372ft 16kts
08-Dec-17 16:09 44.120040 -123.217128 359 372ft 19kts
08-Dec-17 16:10 44.125283 -123.217202 0 372ft 18kts
08-Dec-17 16:11 44.130622 -123.217268 358 372ft 16kts
08-Dec-17 16:12 44.134852 -123.217312 359 372ft 9kts
08-Dec-17 16:13 44.135202 -123.217914 267 372ft 0kts
08-Dec-17 16:14 44.134958 -123.219087 206 372ft 5kts
08-Dec-17 16:15 44.122331 -123.219016 179 646ft 79kts
08-Dec-17 16:16 44.099445 -123.217655 175 1384ft 85kts
08-Dec-17 16:17 44.075256 -123.216526 175 2091ft 87kts
08-Dec-17 16:18 44.051428 -123.215531 174 2779ft 84kts
08-Dec-17 16:19 44.028677 -123.214933 175 3458ft 79kts
08-Dec-17 16:20 44.007034 -123.214429 175 4086ft 77kts
08-Dec-17 16:21 43.985797 -123.213304 174 4680ft 74kts
08-Dec-17 16:22 43.965927 -123.211598 175 5273ft 67kts
08-Dec-17 16:25 43.904199 -123.205991 175 6573ft 80kts
08-Dec-17 16:26 43.881884 -123.203463 174 6967ft 80kts
08-Dec-17 16:27 43.860037 -123.200912 174 7357ft 78kts
08-Dec-17 16:28 43.843013 -123.212509 240 7743ft 80kts
08-Dec-17 16:29 43.834992 -123.240272 240 8125ft 75kts
08-Dec-17 16:30 43.825453 -123.272039 241 8109ft 108kts
08-Dec-17 16:31 43.812416 -123.312840 240 7907ft 119kts
08-Dec-17 16:32 43.799064 -123.353915 240 7907ft 110kts
08-Dec-17 16:33 43.787225 -123.391694 240 8092ft 104kts
08-Dec-17 16:34 43.775690 -123.428294 240 8207ft 108kts
08-Dec-17 16:35 43.762791 -123.468861 240 8012ft 119kts
08-Dec-17 16:36 43.749124 -123.511095 240 7814ft 120kts
08-Dec-17 16:37 43.735423 -123.553333 240 7618ft 120kts
08-Dec-17 16:38 43.721970 -123.595216 240 7524ft 115kts
08-Dec-17 16:39 43.709368 -123.635227 240 7522ft 112kts
08-Dec-17 16:40 43.696130 -123.676597 239 7148ft 121kts
08-Dec-17 16:41 43.681942 -123.719507 240 6659ft 123kts
08-Dec-17 16:42 43.667529 -123.762698 241 6163ft 124kts
08-Dec-17 16:43 43.653120 -123.805939 239 5663ft 123kts
08-Dec-17 16:44 43.637152 -123.847891 226 5160ft 121kts
08-Dec-17 16:45 43.616662 -123.884755 229 4714ft 118kts
08-Dec-17 16:46 43.596681 -123.921826 230 4425ft 121kts
08-Dec-17 16:47 43.575228 -123.958189 226 4122ft 122kts
08-Dec-17 16:48 43.551960 -123.992405 224 3820ft 122kts
08-Dec-17 16:49 43.528369 -124.026535 223 3533ft 121kts
08-Dec-17 16:50 43.505846 -124.058997 223 3500ft 114kts
08-Dec-17 16:51 43.489841 -124.096736 240 3276ft 118kts
08-Dec-17 16:52 43.474224 -124.137862 239 2896ft 122kts
08-Dec-17 16:53 43.458181 -124.179220 239 2287ft 120kts
08-Dec-17 16:54 43.442539 -124.217919 237 1465ft 114kts
08-Dec-17 16:56 43.427793 -124.253625 246 958ft 89kts
08-Dec-17 16:57 43.419622 -124.281824 236 783ft 72kts
08-Dec-17 16:58 43.410629 -124.270370 54 353ft 59kts
08-Dec-17 16:59 43.417468 -124.253913 60 20ft 26kts
08-Dec-17 17:00 43.417660 -124.251680 151 20ft 0kts
08-Dec-17 17:01 43.418588 -124.248385 61 20ft 16kts
08-Dec-17 17:02 43.416692 -124.245413 148 20ft 16kts
08-Dec-17 17:03 43.414858 -124.245522 263 20ft 5kts

Navigation Log

Ident Type
Flight plan parsing failed, navigation log unavailable